Daily Weather Observations for Burdell (Townsville)
For Sunday 10th February 2019

This table is designed for ease of comparison to Bureau of Meteorology recorded weather data.

Station Details Name: BURDELL Lat: -19.24 Lon: 146.69 Height: 8.5 m
Date/Time
EST
Temp
°C
App
Temp
°C
Dew
Point
°C
Rel
Hum
%
Delta-T
°C
Wind Press
QNH
hPa
Press
MSL
hPa
Rain since
9am
mm
Dir  Spd
km/h
Gust
km/h
Spd
kts
Gust
kts
10/11:30pm 28.2 35.8 27.3 95 0.7 SSE 4 8 2 4 1003.4 1003.4 0.0
10/11:00pm 28.2 35.8 27.3 95 0.7 SW 2 5 1 3 1003.8 1003.8 0.0
10/10:30pm 28.4 35.9 27.3 94 0.8 ESE 6 10 3 6 1003.8 1003.8 0.0
10/10:00pm 28.6 36.4 27.4 94 0.9 SE 12 18 6 10 1003.7 1003.7 0.0
10/09:30pm 28.3 35.1 26.9 92 1.1 SE 12 16 7 9 1003.1 1003.1 0.0
10/09:00pm 28.4 35.8 27.0 92 1.1 NNW 3 5 2 3 1002.7 1002.7 0.0
10/08:30pm 28.6 35.9 27.0 91 1.2 NNW 6 8 3 4 1002.3 1002.3 0.0
10/08:00pm 28.8 36.6 27.2 91 1.2 N 8 10 4 6 1001.8 1001.8 0.0
10/07:30pm 28.8 36.6 27.2 91 1.2 NNW 14 18 8 10 1001.2 1001.2 0.0
10/07:00pm 29.2 37.5 27.3 90 1.4 NNW 16 21 9 11 1000.6 1000.6 0.0
10/06:30pm 30.3 39.9 27.4 85 2.2 NNW 13 16 7 9 999.9 999.9 0.0
10/06:00pm 31.4 41.9 27.4 80 3.1 NNW 13 21 7 11 999.5 999.5 0.0
10/05:30pm 31.6 42.9 27.7 80 3.0 NNW 18 21 9 11 999.0 999.0 0.0
10/05:00pm 31.9 43.2 27.7 79 3.2 NNW 19 23 10 13 998.7 998.7 0.0
10/04:30pm 32.9 45.9 28.2 77 3.6 NNW 15 21 8 11 998.7 998.7 0.0
10/04:00pm 34.2 46.5 27.4 68 5.2 NNW 16 18 9 10 998.6 998.6 0.0
10/03:30pm 34.4 44.4 26.2 63 6.2 NNW 14 18 8 10 998.9 998.9 0.0
10/03:00pm 33.8 43.8 26.4 66 5.6 NNW 18 23 10 13 999.0 999.0 0.0
10/02:30pm 33.3 44.9 27.3 71 4.6 NNW 20 26 11 14 999.3 999.3 0.0
10/02:00pm 32.8 45.0 27.8 75 3.8 NNW 18 21 10 11 999.7 999.7 0.0
10/01:30pm 32.3 42.9 27.1 74 4.0 NNW 21 29 11 16 1000.0 1000.0 0.0
10/01:00pm 32.2 43.5 27.6 77 3.5 N 18 21 9 11 1000.3 1000.3 0.0
10/12:30pm 32.2 43.5 27.6 77 3.5 NNW 24 32 13 17 1000.5 1000.5 0.0
10/12:00pm 32.4 42.9 27.1 74 4.0 NNW 21 26 11 14 1000.8 1000.8 0.0
10/11:30am 32.3 43.0 27.2 75 3.9 NNW 16 21 9 11 1001.3 1001.3 0.0
10/11:00am 31.7 42.9 27.6 79 3.1 NNW 16 21 9 11 1001.6 1001.6 0.0
10/10:30am 31.6 42.2 27.3 78 3.3 NNW 13 18 7 10 1001.6 1001.6 0.0
10/10:00am 30.7 40.9 27.5 84 2.4 NNW 12 16 6 9 1001.6 1001.6 0.0
10/09:30am 30.2 38.9 26.9 83 2.5 NNW 14 18 8 10 1001.7 1001.7 0.0
10/09:00am 29.4 36.9 26.4 84 2.3 NNW 15 18 8 10 1001.4 1001.4 0.0
10/08:30am 29.2 36.7 26.7 87 1.9 NNW 10 16 5 9 1001.1 1001.1 0.0
10/08:00am 27.9 33.9 26.0 90 1.4 NNW 7 10 4 6 1000.8 1000.8 0.0
10/07:30am 27.1 33.4 25.5 91 1.2 NNW 2 5 1 3 1000.7 1000.7 0.0
10/07:00am 26.1 32.4 25.2 97 0.7 SW 1 2 1 1 1000.4 1000.4 0.0
10/06:30am 24.7 30.8 24.5 99 0.1 CALM 0 0 0 0 1000.2 1000.2 0.0
10/06:00am 24.4 30.4 24.2 99 0.1 CALM 0 0 0 0 999.8 999.8 0.0
10/05:30am 24.6 30.6 24.3 98 0.2 CALM 0 0 0 0 999.6 999.6 0.0
10/05:00am 24.7 30.6 24.3 98 0.3 SW 0 1 0 1 999.3 999.3 0.0
10/04:30am 24.9 30.9 24.4 97 0.4 SW 0 1 0 1 999.4 999.4 0.0
10/04:00am 25.0 31.0 24.5 97 0.4 WSW 1 2 1 1 999.2 999.2 0.0
10/03:30am 25.2 31.4 24.7 97 0.4 CALM 0 0 0 0 999.4 999.4 0.0
10/03:00am 25.3 31.5 24.8 97 0.4 WNW 1 2 1 1 999.6 999.6 0.0
10/02:30am 25.4 31.5 24.9 97 0.4 NW 2 2 1 1 999.8 999.8 0.0
10/02:00am 25.6 31.8 25.1 97 0.4 NW 2 2 1 1 999.9 999.9 0.0
10/01:30am 25.7 32.2 25.2 97 0.4 NW 1 2 1 1 1000.2 1000.2 0.0
10/01:00am 25.9 32.1 25.3 97 0.4 W 4 5 2 3 1000.3 1000.3 0.0
10/12:30am 26.1 32.8 25.6 97 0.4 WNW 1 2 1 1 1000.7 1000.7 0.0
10/12:00am 26.2 32.8 25.7 97 0.4 NW 1 2 1 1 1001.3 1001.3 0.0
 


NOTE: The apparent temperature specified in the table above is calculated using both the Heat Index and Steadman method. This differs to the Bureau of Meteorology's calculation which uses the Steadman method alone.